Map

Track Data

SID SEASON NUMBER BASIN SUBBASIN NAME ISO_TIME NATURE LAT LON WMO_WIND WMO_PRES WMO_AGENCY TRACK_TYPE DIST2LAND LANDFALL IFLAG USA_AGENCY USA_ATCF_ID USA_LAT USA_LON USA_RECORD USA_STATUS USA_WIND USA_PRES USA_SSHS USA_R34_NE USA_R34_SE USA_R34_SW USA_R34_NW USA_R50_NE USA_R50_SE USA_R50_SW USA_R50_NW USA_R64_NE USA_R64_SE USA_R64_SW USA_R64_NW USA_POCI USA_ROCI USA_RMW USA_EYE TOKYO_LAT TOKYO_LON TOKYO_GRADE TOKYO_WIND TOKYO_PRES TOKYO_R50_DIR TOKYO_R50_LONG TOKYO_R50_SHORT TOKYO_R30_DIR TOKYO_R30_LONG TOKYO_R30_SHORT TOKYO_LAND CMA_LAT CMA_LON CMA_CAT CMA_WIND CMA_PRES HKO_LAT HKO_LON HKO_CAT HKO_WIND HKO_PRES NEWDELHI_LAT NEWDELHI_LON NEWDELHI_GRADE NEWDELHI_WIND NEWDELHI_PRES NEWDELHI_CI NEWDELHI_DP NEWDELHI_POCI REUNION_LAT REUNION_LON REUNION_TYPE REUNION_WIND REUNION_PRES REUNION_TNUM REUNION_CI REUNION_RMW REUNION_R34_NE REUNION_R34_SE REUNION_R34_SW REUNION_R34_NW REUNION_R50_NE REUNION_R50_SE REUNION_R50_SW REUNION_R50_NW REUNION_R64_NE REUNION_R64_SE REUNION_R64_SW REUNION_R64_NW BOM_LAT BOM_LON BOM_TYPE BOM_WIND BOM_PRES BOM_TNUM BOM_CI BOM_RMW BOM_R34_NE BOM_R34_SE BOM_R34_SW BOM_R34_NW BOM_R50_NE BOM_R50_SE BOM_R50_SW BOM_R50_NW BOM_R64_NE BOM_R64_SE BOM_R64_SW BOM_R64_NW BOM_ROCI BOM_POCI BOM_EYE BOM_POS_METHOD BOM_PRES_METHOD NADI_LAT NADI_LON NADI_CAT NADI_WIND NADI_PRES WELLINGTON_LAT WELLINGTON_LON WELLINGTON_WIND WELLINGTON_PRES DS824_LAT DS824_LON DS824_STAGE DS824_WIND DS824_PRES TD9636_LAT TD9636_LON TD9636_STAGE TD9636_WIND TD9636_PRES TD9635_LAT TD9635_LON TD9635_WIND TD9635_PRES TD9635_ROCI NEUMANN_LAT NEUMANN_LON NEUMANN_CLASS NEUMANN_WIND NEUMANN_PRES MLC_LAT MLC_LON MLC_CLASS MLC_WIND MLC_PRES USA_GUST BOM_GUST BOM_GUST_PER REUNION_GUST REUNION_GUST_PER USA_SEAHGT USA_SEARAD_NE USA_SEARAD_SE USA_SEARAD_SW USA_SEARAD_NW STORM_SPEED STORM_DIR
1921166N17126 1921 23 WP MM NOT_NAMED 1921-06-14 22:00:00 NR 16.6000 126.000 main 343 310 __________O___ -1 16.6000 126.000 7 17 268
1921166N17126 1921 23 WP MM NOT_NAMED 1921-06-15 00:00:00 NR 16.5814 125.406 main 310 215 __________P___ -1 16.5814 125.406 7 17 269
1921166N17126 1921 23 WP MM NOT_NAMED 1921-06-15 03:00:00 NR 16.5652 124.506 main 215 121 __________P___ -1 16.5652 124.506 7 17 270
1921166N17126 1921 23 WP MM NOT_NAMED 1921-06-15 06:00:00 NR 16.5833 123.585 main 121 24 __________P___ -1 16.5833 123.585 7 18 273
1921166N17126 1921 23 WP MM NOT_NAMED 1921-06-15 09:00:00 NR 16.6584 122.629 main 24 10 __________P___ -1 16.6584 122.629 7 19 275
1921166N17126 1921 23 WP MM NOT_NAMED 1921-06-15 10:00:00 NR 16.7000 122.300 main 0 0 __________O___ -1 16.7000 122.300 2 19 279
1921166N17126 1921 23 WP MM NOT_NAMED 1921-06-15 12:00:00 NR 16.8101 121.627 main 0 0 __________P___ -1 16.8101 121.627 2 20 281
1921166N17126 1921 23 WP MM NOT_NAMED 1921-06-15 15:00:00 NR 17.0259 120.608 main 0 0 __________P___ -1 17.0259 120.608 2 20 284
1921166N17126 1921 23 WP MM NOT_NAMED 1921-06-15 18:00:00 NR 17.2738 119.632 main 81 81 __________P___ -1 17.2738 119.632 2 18 286
1921166N17126 1921 23 WP MM NOT_NAMED 1921-06-15 21:00:00 NR 17.5223 118.758 main 159 170 __________P___ -1 17.5223 118.758 2 17 287
1921166N17126 1921 23 WP MM NOT_NAMED 1921-06-15 22:00:00 NR 17.6000 118.500 main 190 190 __________O___ -1 17.6000 118.500 3 14 287
1921166N17126 1921 23 WP MM NOT_NAMED 1921-06-16 00:00:00 NR 17.7235 118.063 main 233 244 __________P___ -1 17.7235 118.063 3 12 288
1921166N17126 1921 23 WP MM NOT_NAMED 1921-06-16 03:00:00 NR 17.8977 117.522 main 298 298 __________P___ -1 17.8977 117.522 3 10 290
1921166N17126 1921 23 WP MM NOT_NAMED 1921-06-16 06:00:00 NR 18.0670 117.068 main 343 353 __________P___ -1 18.0670 117.068 3 9 292
1921166N17126 1921 23 WP MM NOT_NAMED 1921-06-16 09:00:00 NR 18.2401 116.644 main 397 397 __________P___ -1 18.2401 116.644 3 9 293
1921166N17126 1921 23 WP MM NOT_NAMED 1921-06-16 10:00:00 NR 18.3000 116.500 main 409 409 __________O___ -1 18.3000 116.500 4 10 291
1921166N17126 1921 23 WP MM NOT_NAMED 1921-06-16 12:00:00 NR 18.4196 116.159 main 442 435 __________P___ -1 18.4196 116.159 4 10 291
1921166N17126 1921 23 WP MM NOT_NAMED 1921-06-16 15:00:00 NR 18.6053 115.646 main 435 400 __________P___ -1 18.6053 115.646 4 10 292
1921166N17126 1921 23 WP MM NOT_NAMED 1921-06-16 18:00:00 NR 18.8040 115.142 main 400 369 __________P___ -1 18.8040 115.142 4 10 294
1921166N17126 1921 23 WP MM NOT_NAMED 1921-06-16 21:00:00 NR 19.0220 114.656 main 369 349 __________P___ -1 19.0220 114.656 4 10 296
1921166N17126 1921 23 WP MM NOT_NAMED 1921-06-16 22:00:00 NR 19.1000 114.500 main 349 316 __________O___ -1 19.1000 114.500 4 10 299
1921166N17126 1921 23 WP MM NOT_NAMED 1921-06-17 00:00:00 NR 19.2578 114.207 main 316 280 __________P___ -1 19.2578 114.207 4 10 302
1921166N17126 1921 23 WP MM NOT_NAMED 1921-06-17 03:00:00 NR 19.5136 113.787 main 280 238 __________P___ -1 19.5136 113.787 4 10 304
1921166N17126 1921 23 WP MM NOT_NAMED 1921-06-17 06:00:00 NR 19.7924 113.373 main 238 189 __________P___ -1 19.7924 113.373 4 10 306
1921166N17126 1921 23 WP MM NOT_NAMED 1921-06-17 09:00:00 NR 20.0943 112.948 main 189 175 __________P___ -1 20.0943 112.948 4 10 307
1921166N17126 1921 23 WP MM NOT_NAMED 1921-06-17 10:00:00 NR 20.2000 112.800 main 175 146 __________O___ -1 20.2000 112.800 4 11 307
1921166N17126 1921 23 WP MM NOT_NAMED 1921-06-17 12:00:00 NR 20.4187 112.493 main 146 88 __________P___ -1 20.4187 112.493 4 11 307
1921166N17126 1921 23 WP MM NOT_NAMED 1921-06-17 15:00:00 NR 20.7618 112.007 main 88 39 __________P___ -1 20.7618 112.007 4 12 307
1921166N17126 1921 23 WP MM NOT_NAMED 1921-06-17 18:00:00 NR 21.1173 111.499 main 39 0 __________P___ -1 21.1173 111.499 4 12 307
1921166N17126 1921 23 WP MM NOT_NAMED 1921-06-17 21:00:00 NR 21.4791 110.976 main 0 0 __________P___ -1 21.4791 110.976 4 12 307
1921166N17126 1921 23 WP MM NOT_NAMED 1921-06-17 22:00:00 NR 21.6000 110.800 main 0 __________O___ -1 21.6000 110.800 4 12 307

Digital Typhoon Data and Search

About IBTrACS Database

This database is a web-friendly format of International Best Track Archive for Climate Stewardship (IBTrACS), a global best track data archive curated by NOAA dating back to 1842.

Updated: 2021-12-03